sensor_id;sensor_type;location;lat;lon;timestamp;P1;durP1;ratioP1;P2;durP2;ratioP2
15502;SDS011;7853;52.186;5.948;2022-11-20T00:02:54;21.51;;;13.27;;
15502;SDS011;7853;52.186;5.948;2022-11-20T00:02:54;18.01;;;12.10;;
15502;SDS011;7853;52.186;5.948;2022-11-20T00:02:59;18.94;;;12.76;;
15502;SDS011;7853;52.186;5.948;2022-11-20T00:03:46;17.79;;;12.26;;
15502;SDS011;7853;52.186;5.948;2022-11-20T00:04:39;18.21;;;12.43;;
15502;SDS011;7853;52.186;5.948;2022-11-20T00:05:36;17.95;;;12.41;;
15502;SDS011;7853;52.186;5.948;2022-11-20T00:06:34;20.04;;;12.66;;
15502;SDS011;7853;52.186;5.948;2022-11-20T00:07:33;19.37;;;12.66;;
15502;SDS011;7853;52.186;5.948;2022-11-20T00:08:33;18.62;;;12.46;;
15502;SDS011;7853;52.186;5.948;2022-11-20T00:09:33;17.93;;;12.51;;
15502;SDS011;7853;52.186;5.948;2022-11-20T00:10:35;17.94;;;12.02;;
15502;SDS011;7853;52.186;5.948;2022-11-20T00:11:33;18.94;;;12.76;;
15502;SDS011;7853;52.186;5.948;2022-11-20T00:12:33;18.30;;;12.37;;
15502;SDS011;7853;52.186;5.948;2022-11-20T00:13:33;18.26;;;12.62;;
15502;SDS011;7853;52.186;5.948;2022-11-20T00:14:33;17.50;;;12.66;;
15502;SDS011;7853;52.186;5.948;2022-11-20T00:15:33;18.89;;;12.47;;
15502;SDS011;7853;52.186;5.948;2022-11-20T00:16:33;17.47;;;12.27;;
15502;SDS011;7853;52.186;5.948;2022-11-20T00:17:33;18.60;;;12.46;;
15502;SDS011;7853;52.186;5.948;2022-11-20T00:18:33;17.23;;;12.17;;
15502;SDS011;7853;52.186;5.948;2022-11-20T00:19:33;16.48;;;11.90;;
15502;SDS011;7853;52.186;5.948;2022-11-20T00:20:33;18.27;;;12.18;;
15502;SDS011;7853;52.186;5.948;2022-11-20T00:21:33;18.12;;;12.62;;
15502;SDS011;7853;52.186;5.948;2022-11-20T00:22:33;18.12;;;12.32;;
15502;SDS011;7853;52.186;5.948;2022-11-20T00:23:33;17.35;;;12.38;;
15502;SDS011;7853;52.186;5.948;2022-11-20T00:24:33;16.64;;;11.71;;
15502;SDS011;7853;52.186;5.948;2022-11-20T00:25:34;17.34;;;11.77;;
15502;SDS011;7853;52.186;5.948;2022-11-20T00:26:34;17.16;;;12.00;;
15502;SDS011;7853;52.186;5.948;2022-11-20T00:27:33;15.99;;;11.48;;
15502;SDS011;7853;52.186;5.948;2022-11-20T00:28:34;18.38;;;12.41;;
15502;SDS011;7853;52.186;5.948;2022-11-20T00:29:34;17.33;;;12.28;;
15502;SDS011;7853;52.186;5.948;2022-11-20T00:30:34;17.11;;;11.46;;
15502;SDS011;7853;52.186;5.948;2022-11-20T00:31:34;16.94;;;11.54;;
15502;SDS011;7853;52.186;5.948;2022-11-20T00:32:34;17.56;;;11.61;;
15502;SDS011;7853;52.186;5.948;2022-11-20T00:33:34;16.64;;;11.10;;
15502;SDS011;7853;52.186;5.948;2022-11-20T00:34:34;17.57;;;11.25;;
15502;SDS011;7853;52.186;5.948;2022-11-20T00:35:34;18.61;;;11.47;;
15502;SDS011;7853;52.186;5.948;2022-11-20T00:36:34;18.51;;;11.68;;
15502;SDS011;7853;52.186;5.948;2022-11-20T00:37:34;17.89;;;11.56;;
15502;SDS011;7853;52.186;5.948;2022-11-20T00:38:34;18.60;;;11.49;;
15502;SDS011;7853;52.186;5.948;2022-11-20T00:39:34;16.79;;;11.35;;
15502;SDS011;7853;52.186;5.948;2022-11-20T00:40:34;17.56;;;11.48;;
15502;SDS011;7853;52.186;5.948;2022-11-20T00:41:34;18.02;;;11.26;;
15502;SDS011;7853;52.186;5.948;2022-11-20T00:42:35;17.22;;;11.40;;
15502;SDS011;7853;52.186;5.948;2022-11-20T00:43:34;17.89;;;11.45;;
15502;SDS011;7853;52.186;5.948;2022-11-20T00:44:34;18.03;;;11.63;;
15502;SDS011;7853;52.186;5.948;2022-11-20T00:45:34;16.58;;;11.52;;
15502;SDS011;7853;52.186;5.948;2022-11-20T00:46:34;19.28;;;11.83;;
15502;SDS011;7853;52.186;5.948;2022-11-20T00:47:34;19.41;;;12.19;;
15502;SDS011;7853;52.186;5.948;2022-11-20T00:48:34;18.83;;;12.18;;
15502;SDS011;7853;52.186;5.948;2022-11-20T00:49:34;19.39;;;12.50;;
15502;SDS011;7853;52.186;5.948;2022-11-20T00:50:34;18.58;;;12.72;;
15502;SDS011;7853;52.186;5.948;2022-11-20T00:51:34;17.52;;;12.20;;
15502;SDS011;7853;52.186;5.948;2022-11-20T00:52:34;18.34;;;11.86;;
15502;SDS011;7853;52.186;5.948;2022-11-20T00:53:34;17.54;;;11.82;;
15502;SDS011;7853;52.186;5.948;2022-11-20T00:54:34;16.85;;;11.29;;
15502;SDS011;7853;52.186;5.948;2022-11-20T00:55:34;19.57;;;11.55;;
15502;SDS011;7853;52.186;5.948;2022-11-20T00:56:34;18.86;;;11.95;;
15502;SDS011;7853;52.186;5.948;2022-11-20T00:57:34;17.20;;;11.46;;
15502;SDS011;7853;52.186;5.948;2022-11-20T00:58:35;21.07;;;11.75;;
15502;SDS011;7853;52.186;5.948;2022-11-20T00:59:34;17.76;;;11.59;;
15502;SDS011;7853;52.186;5.948;2022-11-20T01:00:35;20.34;;;12.41;;
15502;SDS011;7853;52.186;5.948;2022-11-20T01:01:34;18.95;;;11.95;;
15502;SDS011;7853;52.186;5.948;2022-11-20T01:02:34;18.62;;;12.06;;
15502;SDS011;7853;52.186;5.948;2022-11-20T01:03:36;19.34;;;12.20;;
15502;SDS011;7853;52.186;5.948;2022-11-20T01:04:34;19.81;;;12.63;;
15502;SDS011;7853;52.186;5.948;2022-11-20T01:05:34;18.35;;;11.76;;
15502;SDS011;7853;52.186;5.948;2022-11-20T01:06:35;16.81;;;10.46;;
15502;SDS011;7853;52.186;5.948;2022-11-20T01:07:34;17.88;;;10.73;;
15502;SDS011;7853;52.186;5.948;2022-11-20T01:08:35;19.44;;;10.94;;
15502;SDS011;7853;52.186;5.948;2022-11-20T01:09:35;16.26;;;10.13;;
15502;SDS011;7853;52.186;5.948;2022-11-20T01:10:34;17.36;;;10.27;;
15502;SDS011;7853;52.186;5.948;2022-11-20T01:11:35;17.13;;;9.88;;
15502;SDS011;7853;52.186;5.948;2022-11-20T01:12:34;18.11;;;10.46;;
15502;SDS011;7853;52.186;5.948;2022-11-20T01:13:35;18.34;;;10.46;;
15502;SDS011;7853;52.186;5.948;2022-11-20T01:14:34;16.33;;;10.22;;
15502;SDS011;7853;52.186;5.948;2022-11-20T01:15:34;18.35;;;10.41;;
15502;SDS011;7853;52.186;5.948;2022-11-20T01:16:35;16.45;;;9.45;;
15502;SDS011;7853;52.186;5.948;2022-11-20T01:17:34;17.26;;;10.45;;
15502;SDS011;7853;52.186;5.948;2022-11-20T01:18:35;18.66;;;10.33;;
15502;SDS011;7853;52.186;5.948;2022-11-20T01:19:34;17.24;;;9.91;;
15502;SDS011;7853;52.186;5.948;2022-11-20T01:20:35;18.27;;;10.16;;
15502;SDS011;7853;52.186;5.948;2022-11-20T01:21:35;19.07;;;9.99;;
15502;SDS011;7853;52.186;5.948;2022-11-20T01:22:34;16.75;;;10.20;;
15502;SDS011;7853;52.186;5.948;2022-11-20T01:23:36;18.72;;;10.53;;
15502;SDS011;7853;52.186;5.948;2022-11-20T01:24:34;19.77;;;11.13;;
15502;SDS011;7853;52.186;5.948;2022-11-20T01:25:34;18.14;;;9.68;;
15502;SDS011;7853;52.186;5.948;2022-11-20T01:26:36;18.08;;;10.14;;
15502;SDS011;7853;52.186;5.948;2022-11-20T01:27:34;17.35;;;10.05;;
15502;SDS011;7853;52.186;5.948;2022-11-20T01:28:35;17.31;;;9.69;;
15502;SDS011;7853;52.186;5.948;2022-11-20T01:29:34;16.13;;;9.59;;
15502;SDS011;7853;52.186;5.948;2022-11-20T01:30:35;16.73;;;9.66;;
15502;SDS011;7853;52.186;5.948;2022-11-20T01:31:35;16.13;;;9.67;;
15502;SDS011;7853;52.186;5.948;2022-11-20T01:32:34;14.82;;;9.34;;
15502;SDS011;7853;52.186;5.948;2022-11-20T01:33:34;13.61;;;9.02;;
15502;SDS011;7853;52.186;5.948;2022-11-20T01:34:35;17.46;;;9.84;;
15502;SDS011;7853;52.186;5.948;2022-11-20T01:35:34;15.76;;;9.58;;
15502;SDS011;7853;52.186;5.948;2022-11-20T01:36:35;16.44;;;9.58;;
15502;SDS011;7853;52.186;5.948;2022-11-20T01:37:35;15.56;;;9.42;;
15502;SDS011;7853;52.186;5.948;2022-11-20T01:38:35;16.06;;;9.36;;
15502;SDS011;7853;52.186;5.948;2022-11-20T01:39:34;14.89;;;9.17;;
15502;SDS011;7853;52.186;5.948;2022-11-20T01:40:34;15.87;;;9.83;;
15502;SDS011;7853;52.186;5.948;2022-11-20T01:41:34;16.24;;;10.10;;
15502;SDS011;7853;52.186;5.948;2022-11-20T01:42:34;16.48;;;10.32;;
15502;SDS011;7853;52.186;5.948;2022-11-20T01:43:34;16.85;;;9.99;;
15502;SDS011;7853;52.186;5.948;2022-11-20T01:44:51;17.39;;;10.28;;
15502;SDS011;7853;52.186;5.948;2022-11-20T01:45:56;18.51;;;10.29;;
15502;SDS011;7853;52.186;5.948;2022-11-20T01:47:00;16.96;;;9.73;;
15502;SDS011;7853;52.186;5.948;2022-11-20T01:47:47;14.47;;;9.75;;
15502;SDS011;7853;52.186;5.948;2022-11-20T01:48:42;14.50;;;9.23;;
15502;SDS011;7853;52.186;5.948;2022-11-20T01:49:37;14.17;;;9.00;;
15502;SDS011;7853;52.186;5.948;2022-11-20T01:50:34;12.53;;;8.47;;
15502;SDS011;7853;52.186;5.948;2022-11-20T01:51:34;13.14;;;8.53;;
15502;SDS011;7853;52.186;5.948;2022-11-20T01:52:34;13.22;;;8.61;;
15502;SDS011;7853;52.186;5.948;2022-11-20T01:53:33;12.68;;;8.44;;
15502;SDS011;7853;52.186;5.948;2022-11-20T01:54:34;12.03;;;8.00;;
15502;SDS011;7853;52.186;5.948;2022-11-20T01:55:33;12.64;;;8.21;;
15502;SDS011;7853;52.186;5.948;2022-11-20T01:56:33;12.11;;;8.14;;
15502;SDS011;7853;52.186;5.948;2022-11-20T01:57:33;12.78;;;8.54;;
15502;SDS011;7853;52.186;5.948;2022-11-20T01:58:33;12.76;;;8.12;;
15502;SDS011;7853;52.186;5.948;2022-11-20T01:59:33;12.69;;;8.19;;
15502;SDS011;7853;52.186;5.948;2022-11-20T02:00:33;11.27;;;7.77;;
15502;SDS011;7853;52.186;5.948;2022-11-20T02:01:33;12.48;;;7.72;;
15502;SDS011;7853;52.186;5.948;2022-11-20T02:02:33;11.77;;;7.66;;
15502;SDS011;7853;52.186;5.948;2022-11-20T02:03:33;12.46;;;7.73;;
15502;SDS011;7853;52.186;5.948;2022-11-20T02:04:33;13.34;;;8.02;;
15502;SDS011;7853;52.186;5.948;2022-11-20T02:05:34;12.27;;;7.90;;
15502;SDS011;7853;52.186;5.948;2022-11-20T02:06:35;12.44;;;8.32;;
15502;SDS011;7853;52.186;5.948;2022-11-20T02:07:33;14.46;;;8.17;;
15502;SDS011;7853;52.186;5.948;2022-11-20T02:10:41;12.23;;;8.09;;
15502;SDS011;7853;52.186;5.948;2022-11-20T02:11:41;12.44;;;8.66;;
15502;SDS011;7853;52.186;5.948;2022-11-20T02:12:37;11.89;;;8.67;;
15502;SDS011;7853;52.186;5.948;2022-11-20T02:13:35;12.32;;;8.72;;
15502;SDS011;7853;52.186;5.948;2022-11-20T02:14:34;13.08;;;8.38;;
15502;SDS011;7853;52.186;5.948;2022-11-20T02:15:34;12.20;;;8.09;;
15502;SDS011;7853;52.186;5.948;2022-11-20T02:16:34;12.95;;;8.50;;
15502;SDS011;7853;52.186;5.948;2022-11-20T02:17:33;12.02;;;8.10;;
15502;SDS011;7853;52.186;5.948;2022-11-20T02:18:33;11.12;;;8.07;;
15502;SDS011;7853;52.186;5.948;2022-11-20T02:19:33;12.16;;;7.97;;
15502;SDS011;7853;52.186;5.948;2022-11-20T02:20:33;11.45;;;7.90;;
15502;SDS011;7853;52.186;5.948;2022-11-20T02:21:35;11.47;;;8.00;;
15502;SDS011;7853;52.186;5.948;2022-11-20T02:22:35;12.34;;;7.91;;
15502;SDS011;7853;52.186;5.948;2022-11-20T02:23:36;12.56;;;7.96;;
15502;SDS011;7853;52.186;5.948;2022-11-20T02:24:33;11.80;;;8.08;;
15502;SDS011;7853;52.186;5.948;2022-11-20T02:25:33;11.41;;;7.90;;
15502;SDS011;7853;52.186;5.948;2022-11-20T02:26:35;11.49;;;8.15;;
15502;SDS011;7853;52.186;5.948;2022-11-20T02:27:34;11.68;;;8.19;;
15502;SDS011;7853;52.186;5.948;2022-11-20T02:28:34;12.57;;;7.94;;
15502;SDS011;7853;52.186;5.948;2022-11-20T02:29:35;11.01;;;7.96;;
15502;SDS011;7853;52.186;5.948;2022-11-20T02:30:34;11.20;;;7.65;;
15502;SDS011;7853;52.186;5.948;2022-11-20T02:31:35;10.87;;;7.88;;
15502;SDS011;7853;52.186;5.948;2022-11-20T02:32:35;11.71;;;7.79;;
15502;SDS011;7853;52.186;5.948;2022-11-20T02:33:34;11.38;;;7.87;;
15502;SDS011;7853;52.186;5.948;2022-11-20T02:34:34;11.39;;;7.72;;
15502;SDS011;7853;52.186;5.948;2022-11-20T02:35:43;13.05;;;8.08;;
15502;SDS011;7853;52.186;5.948;2022-11-20T02:36:34;13.27;;;7.93;;
15502;SDS011;7853;52.186;5.948;2022-11-20T02:37:34;13.44;;;8.03;;
15502;SDS011;7853;52.186;5.948;2022-11-20T02:38:34;12.48;;;8.03;;
15502;SDS011;7853;52.186;5.948;2022-11-20T02:39:34;11.32;;;7.82;;
15502;SDS011;7853;52.186;5.948;2022-11-20T02:40:34;13.03;;;7.86;;
15502;SDS011;7853;52.186;5.948;2022-11-20T02:41:35;12.12;;;7.97;;
15502;SDS011;7853;52.186;5.948;2022-11-20T02:42:34;10.96;;;7.86;;
15502;SDS011;7853;52.186;5.948;2022-11-20T02:43:34;10.80;;;7.54;;
15502;SDS011;7853;52.186;5.948;2022-11-20T02:44:34;10.67;;;7.41;;
15502;SDS011;7853;52.186;5.948;2022-11-20T02:45:34;10.68;;;7.46;;
15502;SDS011;7853;52.186;5.948;2022-11-20T02:46:34;11.45;;;7.87;;
15502;SDS011;7853;52.186;5.948;2022-11-20T02:47:34;11.58;;;7.59;;
15502;SDS011;7853;52.186;5.948;2022-11-20T02:48:34;12.28;;;7.76;;
15502;SDS011;7853;52.186;5.948;2022-11-20T02:49:34;11.79;;;7.87;;
15502;SDS011;7853;52.186;5.948;2022-11-20T02:50:36;12.53;;;8.08;;
15502;SDS011;7853;52.186;5.948;2022-11-20T02:51:34;12.57;;;8.07;;
15502;SDS011;7853;52.186;5.948;2022-11-20T02:52:34;12.10;;;8.05;;
15502;SDS011;7853;52.186;5.948;2022-11-20T02:53:34;12.82;;;7.83;;
15502;SDS011;7853;52.186;5.948;2022-11-20T02:54:34;12.74;;;8.28;;
15502;SDS011;7853;52.186;5.948;2022-11-20T02:55:34;13.22;;;8.42;;
15502;SDS011;7853;52.186;5.948;2022-11-20T02:56:34;13.01;;;8.38;;
15502;SDS011;7853;52.186;5.948;2022-11-20T02:57:34;12.30;;;8.38;;
15502;SDS011;7853;52.186;5.948;2022-11-20T02:58:34;12.69;;;8.39;;
15502;SDS011;7853;52.186;5.948;2022-11-20T02:59:34;11.77;;;7.88;;
15502;SDS011;7853;52.186;5.948;2022-11-20T03:00:34;12.63;;;8.11;;
15502;SDS011;7853;52.186;5.948;2022-11-20T03:01:34;11.92;;;7.83;;
15502;SDS011;7853;52.186;5.948;2022-11-20T03:02:34;13.64;;;8.06;;
15502;SDS011;7853;52.186;5.948;2022-11-20T03:03:34;12.43;;;7.95;;
15502;SDS011;7853;52.186;5.948;2022-11-20T03:04:34;12.54;;;8.45;;
15502;SDS011;7853;52.186;5.948;2022-11-20T03:05:34;11.91;;;7.88;;
15502;SDS011;7853;52.186;5.948;2022-11-20T03:06:34;12.71;;;8.07;;
15502;SDS011;7853;52.186;5.948;2022-11-20T03:07:34;13.46;;;8.33;;
15502;SDS011;7853;52.186;5.948;2022-11-20T03:08:34;12.68;;;7.63;;
15502;SDS011;7853;52.186;5.948;2022-11-20T03:09:34;11.80;;;7.83;;
15502;SDS011;7853;52.186;5.948;2022-11-20T03:10:34;11.71;;;7.74;;
15502;SDS011;7853;52.186;5.948;2022-11-20T03:11:34;12.40;;;8.05;;
15502;SDS011;7853;52.186;5.948;2022-11-20T03:12:34;11.72;;;7.70;;
15502;SDS011;7853;52.186;5.948;2022-11-20T03:13:34;11.30;;;7.71;;
15502;SDS011;7853;52.186;5.948;2022-11-20T03:14:34;10.20;;;7.28;;
15502;SDS011;7853;52.186;5.948;2022-11-20T03:15:35;11.02;;;7.54;;
15502;SDS011;7853;52.186;5.948;2022-11-20T03:16:34;11.65;;;7.66;;
15502;SDS011;7853;52.186;5.948;2022-11-20T03:17:34;13.08;;;8.07;;
15502;SDS011;7853;52.186;5.948;2022-11-20T03:18:35;12.94;;;8.44;;
15502;SDS011;7853;52.186;5.948;2022-11-20T03:19:34;12.18;;;8.13;;
15502;SDS011;7853;52.186;5.948;2022-11-20T03:20:34;12.23;;;7.82;;
15502;SDS011;7853;52.186;5.948;2022-11-20T03:21:35;12.97;;;8.20;;
15502;SDS011;7853;52.186;5.948;2022-11-20T03:22:34;15.36;;;8.62;;
15502;SDS011;7853;52.186;5.948;2022-11-20T03:23:35;14.17;;;8.73;;
15502;SDS011;7853;52.186;5.948;2022-11-20T03:24:34;14.63;;;8.51;;
15502;SDS011;7853;52.186;5.948;2022-11-20T03:25:34;14.09;;;9.10;;
15502;SDS011;7853;52.186;5.948;2022-11-20T03:26:34;14.68;;;9.21;;
15502;SDS011;7853;52.186;5.948;2022-11-20T03:27:34;14.57;;;9.07;;
15502;SDS011;7853;52.186;5.948;2022-11-20T03:28:35;13.78;;;8.80;;
15502;SDS011;7853;52.186;5.948;2022-11-20T03:29:35;14.33;;;8.73;;
15502;SDS011;7853;52.186;5.948;2022-11-20T03:30:35;14.63;;;8.74;;
15502;SDS011;7853;52.186;5.948;2022-11-20T03:31:36;16.03;;;8.86;;
15502;SDS011;7853;52.186;5.948;2022-11-20T03:32:35;14.05;;;8.50;;
15502;SDS011;7853;52.186;5.948;2022-11-20T03:33:34;13.49;;;8.68;;
15502;SDS011;7853;52.186;5.948;2022-11-20T03:34:34;14.33;;;8.79;;
15502;SDS011;7853;52.186;5.948;2022-11-20T03:35:35;14.63;;;8.94;;
15502;SDS011;7853;52.186;5.948;2022-11-20T03:36:35;16.08;;;8.96;;
15502;SDS011;7853;52.186;5.948;2022-11-20T03:37:34;14.14;;;8.98;;
15502;SDS011;7853;52.186;5.948;2022-11-20T03:38:34;15.31;;;8.62;;
15502;SDS011;7853;52.186;5.948;2022-11-20T03:39:34;13.35;;;8.25;;
15502;SDS011;7853;52.186;5.948;2022-11-20T03:40:34;12.11;;;7.83;;
15502;SDS011;7853;52.186;5.948;2022-11-20T03:41:35;12.76;;;8.32;;
15502;SDS011;7853;52.186;5.948;2022-11-20T03:42:35;13.37;;;8.38;;
15502;SDS011;7853;52.186;5.948;2022-11-20T03:43:34;13.47;;;8.03;;
15502;SDS011;7853;52.186;5.948;2022-11-20T03:44:35;13.41;;;7.87;;
15502;SDS011;7853;52.186;5.948;2022-11-20T03:45:34;14.29;;;7.88;;
15502;SDS011;7853;52.186;5.948;2022-11-20T03:46:35;12.08;;;7.62;;
15502;SDS011;7853;52.186;5.948;2022-11-20T03:47:34;12.42;;;7.28;;
15502;SDS011;7853;52.186;5.948;2022-11-20T03:48:35;11.24;;;7.44;;
15502;SDS011;7853;52.186;5.948;2022-11-20T03:49:34;12.00;;;7.57;;
15502;SDS011;7853;52.186;5.948;2022-11-20T03:50:35;11.31;;;7.47;;
15502;SDS011;7853;52.186;5.948;2022-11-20T03:51:35;12.12;;;7.52;;
15502;SDS011;7853;52.186;5.948;2022-11-20T03:52:35;10.57;;;7.49;;
15502;SDS011;7853;52.186;5.948;2022-11-20T03:53:34;11.39;;;7.53;;
15502;SDS011;7853;52.186;5.948;2022-11-20T03:54:34;11.76;;;7.44;;
15502;SDS011;7853;52.186;5.948;2022-11-20T03:55:35;10.62;;;7.35;;
15502;SDS011;7853;52.186;5.948;2022-11-20T03:56:36;11.08;;;7.38;;
15502;SDS011;7853;52.186;5.948;2022-11-20T03:57:35;11.04;;;7.15;;
15502;SDS011;7853;52.186;5.948;2022-11-20T03:58:35;10.73;;;7.39;;
15502;SDS011;7853;52.186;5.948;2022-11-20T03:59:34;10.46;;;7.25;;
15502;SDS011;7853;52.186;5.948;2022-11-20T04:00:35;10.42;;;7.22;;
15502;SDS011;7853;52.186;5.948;2022-11-20T04:01:35;12.41;;;7.24;;
15502;SDS011;7853;52.186;5.948;2022-11-20T04:02:34;11.04;;;7.02;;
15502;SDS011;7853;52.186;5.948;2022-11-20T04:03:35;11.14;;;7.35;;
15502;SDS011;7853;52.186;5.948;2022-11-20T04:04:34;12.61;;;7.33;;
15502;SDS011;7853;52.186;5.948;2022-11-20T04:05:34;11.08;;;7.22;;
15502;SDS011;7853;52.186;5.948;2022-11-20T04:06:35;10.62;;;6.92;;
15502;SDS011;7853;52.186;5.948;2022-11-20T04:07:35;10.25;;;6.90;;
15502;SDS011;7853;52.186;5.948;2022-11-20T04:08:34;10.41;;;6.93;;
15502;SDS011;7853;52.186;5.948;2022-11-20T04:09:35;9.59;;;6.92;;
15502;SDS011;7853;52.186;5.948;2022-11-20T04:10:35;9.79;;;6.84;;
15502;SDS011;7853;52.186;5.948;2022-11-20T04:11:35;10.70;;;7.04;;
15502;SDS011;7853;52.186;5.948;2022-11-20T04:12:35;11.50;;;6.99;;
15502;SDS011;7853;52.186;5.948;2022-11-20T04:13:35;9.73;;;6.66;;
15502;SDS011;7853;52.186;5.948;2022-11-20T04:14:35;10.49;;;6.76;;
15502;SDS011;7853;52.186;5.948;2022-11-20T04:15:34;9.64;;;6.84;;
15502;SDS011;7853;52.186;5.948;2022-11-20T04:16:35;9.73;;;6.56;;
15502;SDS011;7853;52.186;5.948;2022-11-20T04:17:34;9.83;;;6.56;;
15502;SDS011;7853;52.186;5.948;2022-11-20T04:18:35;10.76;;;6.89;;
15502;SDS011;7853;52.186;5.948;2022-11-20T04:19:35;10.69;;;6.87;;
15502;SDS011;7853;52.186;5.948;2022-11-20T04:20:35;9.12;;;6.68;;
15502;SDS011;7853;52.186;5.948;2022-11-20T04:21:35;10.27;;;6.93;;
15502;SDS011;7853;52.186;5.948;2022-11-20T04:22:35;9.98;;;6.82;;
15502;SDS011;7853;52.186;5.948;2022-11-20T04:23:35;10.14;;;6.81;;
15502;SDS011;7853;52.186;5.948;2022-11-20T04:24:34;9.27;;;6.63;;
15502;SDS011;7853;52.186;5.948;2022-11-20T04:25:35;9.76;;;6.84;;
15502;SDS011;7853;52.186;5.948;2022-11-20T04:26:34;9.88;;;6.80;;
15502;SDS011;7853;52.186;5.948;2022-11-20T04:27:34;9.73;;;6.65;;
15502;SDS011;7853;52.186;5.948;2022-11-20T04:28:35;10.27;;;6.79;;
15502;SDS011;7853;52.186;5.948;2022-11-20T04:29:34;9.68;;;7.03;;
15502;SDS011;7853;52.186;5.948;2022-11-20T04:30:35;10.38;;;6.90;;
15502;SDS011;7853;52.186;5.948;2022-11-20T04:31:34;9.55;;;6.57;;
15502;SDS011;7853;52.186;5.948;2022-11-20T04:32:34;9.55;;;6.98;;
15502;SDS011;7853;52.186;5.948;2022-11-20T04:33:35;10.65;;;7.08;;
15502;SDS011;7853;52.186;5.948;2022-11-20T04:34:35;9.54;;;6.73;;
15502;SDS011;7853;52.186;5.948;2022-11-20T04:35:35;10.11;;;6.88;;
15502;SDS011;7853;52.186;5.948;2022-11-20T04:36:35;10.29;;;6.75;;
15502;SDS011;7853;52.186;5.948;2022-11-20T04:37:35;9.47;;;6.48;;
15502;SDS011;7853;52.186;5.948;2022-11-20T04:38:35;9.28;;;6.48;;
15502;SDS011;7853;52.186;5.948;2022-11-20T04:39:34;9.13;;;6.43;;
15502;SDS011;7853;52.186;5.948;2022-11-20T04:40:35;9.25;;;6.42;;
15502;SDS011;7853;52.186;5.948;2022-11-20T04:41:35;9.56;;;6.57;;
15502;SDS011;7853;52.186;5.948;2022-11-20T04:42:34;10.37;;;6.99;;
15502;SDS011;7853;52.186;5.948;2022-11-20T04:43:35;10.63;;;6.66;;
15502;SDS011;7853;52.186;5.948;2022-11-20T04:44:34;9.34;;;6.57;;
15502;SDS011;7853;52.186;5.948;2022-11-20T04:45:35;10.14;;;6.73;;
15502;SDS011;7853;52.186;5.948;2022-11-20T04:46:35;9.55;;;6.57;;
15502;SDS011;7853;52.186;5.948;2022-11-20T04:47:35;9.37;;;6.50;;
15502;SDS011;7853;52.186;5.948;2022-11-20T04:48:35;10.85;;;6.84;;
15502;SDS011;7853;52.186;5.948;2022-11-20T04:49:35;9.01;;;6.28;;
15502;SDS011;7853;52.186;5.948;2022-11-20T04:50:35;9.94;;;6.48;;
15502;SDS011;7853;52.186;5.948;2022-11-20T04:51:35;10.17;;;6.63;;
15502;SDS011;7853;52.186;5.948;2022-11-20T04:52:34;9.59;;;6.20;;
15502;SDS011;7853;52.186;5.948;2022-11-20T04:53:35;9.57;;;6.48;;
15502;SDS011;7853;52.186;5.948;2022-11-20T04:54:34;10.13;;;6.70;;
15502;SDS011;7853;52.186;5.948;2022-11-20T04:55:35;9.96;;;6.46;;
15502;SDS011;7853;52.186;5.948;2022-11-20T04:56:35;9.94;;;6.40;;
15502;SDS011;7853;52.186;5.948;2022-11-20T04:57:34;9.59;;;6.23;;
15502;SDS011;7853;52.186;5.948;2022-11-20T04:58:34;9.18;;;6.36;;
15502;SDS011;7853;52.186;5.948;2022-11-20T04:59:35;8.98;;;6.17;;
15502;SDS011;7853;52.186;5.948;2022-11-20T05:00:35;8.93;;;6.12;;
15502;SDS011;7853;52.186;5.948;2022-11-20T05:01:35;8.86;;;6.35;;
15502;SDS011;7853;52.186;5.948;2022-11-20T05:02:34;9.10;;;6.47;;
15502;SDS011;7853;52.186;5.948;2022-11-20T05:03:35;9.79;;;6.45;;
15502;SDS011;7853;52.186;5.948;2022-11-20T05:04:35;9.22;;;6.12;;
15502;SDS011;7853;52.186;5.948;2022-11-20T05:05:35;10.50;;;6.59;;
15502;SDS011;7853;52.186;5.948;2022-11-20T05:06:35;9.94;;;6.24;;
15502;SDS011;7853;52.186;5.948;2022-11-20T05:07:35;9.33;;;6.46;;
15502;SDS011;7853;52.186;5.948;2022-11-20T05:08:34;9.57;;;6.57;;
15502;SDS011;7853;52.186;5.948;2022-11-20T05:09:34;9.45;;;6.27;;
15502;SDS011;7853;52.186;5.948;2022-11-20T05:10:35;9.14;;;6.21;;
15502;SDS011;7853;52.186;5.948;2022-11-20T05:11:34;10.07;;;6.19;;
15502;SDS011;7853;52.186;5.948;2022-11-20T05:12:35;9.14;;;6.25;;
15502;SDS011;7853;52.186;5.948;2022-11-20T05:13:35;11.23;;;6.68;;
15502;SDS011;7853;52.186;5.948;2022-11-20T05:14:34;9.47;;;6.52;;
15502;SDS011;7853;52.186;5.948;2022-11-20T05:15:34;9.23;;;6.25;;
15502;SDS011;7853;52.186;5.948;2022-11-20T05:16:35;9.72;;;6.13;;
15502;SDS011;7853;52.186;5.948;2022-11-20T05:17:34;10.53;;;6.70;;
15502;SDS011;7853;52.186;5.948;2022-11-20T05:18:35;9.57;;;6.19;;
15502;SDS011;7853;52.186;5.948;2022-11-20T05:19:34;9.51;;;6.54;;
15502;SDS011;7853;52.186;5.948;2022-11-20T05:20:35;9.23;;;6.33;;
15502;SDS011;7853;52.186;5.948;2022-11-20T05:21:34;9.28;;;6.51;;
15502;SDS011;7853;52.186;5.948;2022-11-20T05:22:35;9.65;;;6.52;;
15502;SDS011;7853;52.186;5.948;2022-11-20T05:23:35;8.84;;;6.42;;
15502;SDS011;7853;52.186;5.948;2022-11-20T05:24:34;10.00;;;6.52;;
15502;SDS011;7853;52.186;5.948;2022-11-20T05:25:34;9.53;;;6.40;;
15502;SDS011;7853;52.186;5.948;2022-11-20T05:26:34;9.56;;;6.06;;
15502;SDS011;7853;52.186;5.948;2022-11-20T05:27:34;8.94;;;6.20;;
15502;SDS011;7853;52.186;5.948;2022-11-20T05:28:35;9.48;;;6.53;;
15502;SDS011;7853;52.186;5.948;2022-11-20T05:29:35;9.74;;;6.64;;
15502;SDS011;7853;52.186;5.948;2022-11-20T05:30:35;9.74;;;6.35;;
15502;SDS011;7853;52.186;5.948;2022-11-20T05:31:34;9.46;;;6.27;;
15502;SDS011;7853;52.186;5.948;2022-11-20T05:32:35;9.44;;;6.50;;
15502;SDS011;7853;52.186;5.948;2022-11-20T05:33:35;9.35;;;6.18;;
15502;SDS011;7853;52.186;5.948;2022-11-20T05:34:34;9.09;;;6.04;;
15502;SDS011;7853;52.186;5.948;2022-11-20T05:35:34;9.93;;;6.53;;
15502;SDS011;7853;52.186;5.948;2022-11-20T05:36:35;10.28;;;6.29;;
15502;SDS011;7853;52.186;5.948;2022-11-20T05:37:35;8.78;;;6.01;;
15502;SDS011;7853;52.186;5.948;2022-11-20T05:38:34;9.11;;;6.46;;
15502;SDS011;7853;52.186;5.948;2022-11-20T05:39:35;9.05;;;6.32;;
15502;SDS011;7853;52.186;5.948;2022-11-20T05:40:34;9.62;;;6.52;;
15502;SDS011;7853;52.186;5.948;2022-11-20T05:41:34;9.47;;;6.66;;
15502;SDS011;7853;52.186;5.948;2022-11-20T05:42:34;9.02;;;6.25;;
15502;SDS011;7853;52.186;5.948;2022-11-20T05:43:35;8.96;;;6.17;;
15502;SDS011;7853;52.186;5.948;2022-11-20T05:44:35;8.50;;;6.24;;
15502;SDS011;7853;52.186;5.948;2022-11-20T05:45:35;10.30;;;6.76;;
15502;SDS011;7853;52.186;5.948;2022-11-20T05:46:35;8.78;;;6.30;;
15502;SDS011;7853;52.186;5.948;2022-11-20T05:47:35;9.98;;;6.88;;
15502;SDS011;7853;52.186;5.948;2022-11-20T05:48:35;9.08;;;6.59;;
15502;SDS011;7853;52.186;5.948;2022-11-20T05:49:34;9.26;;;6.16;;
15502;SDS011;7853;52.186;5.948;2022-11-20T05:50:35;8.99;;;6.26;;
15502;SDS011;7853;52.186;5.948;2022-11-20T05:51:34;9.20;;;6.30;;
15502;SDS011;7853;52.186;5.948;2022-11-20T05:52:35;9.07;;;6.30;;
15502;SDS011;7853;52.186;5.948;2022-11-20T05:53:35;8.59;;;6.05;;
15502;SDS011;7853;52.186;5.948;2022-11-20T05:54:34;9.49;;;6.34;;
15502;SDS011;7853;52.186;5.948;2022-11-20T05:55:35;8.56;;;5.99;;
15502;SDS011;7853;52.186;5.948;2022-11-20T05:56:35;8.86;;;6.23;;
15502;SDS011;7853;52.186;5.948;2022-11-20T05:57:34;11.97;;;7.21;;
15502;SDS011;7853;52.186;5.948;2022-11-20T05:58:35;13.13;;;7.46;;
15502;SDS011;7853;52.186;5.948;2022-11-20T05:59:34;12.60;;;6.82;;
15502;SDS011;7853;52.186;5.948;2022-11-20T06:00:35;12.97;;;7.14;;
15502;SDS011;7853;52.186;5.948;2022-11-20T06:01:34;13.87;;;7.02;;
15502;SDS011;7853;52.186;5.948;2022-11-20T06:02:35;13.85;;;6.95;;
15502;SDS011;7853;52.186;5.948;2022-11-20T06:03:35;14.35;;;7.27;;